UAE33 OMDB-LTFM
Flight info
| Callsign | UAE33 |
|---|---|
| Flight time | N/A |
| Altitude | 40000 |
| Route | RIDAP M557 TUMAK L602 GADSI M860 NINVA UM860 NAREN UT368 UMLEN UL718 ETESU UT888 SIV UL615 ERSEN |
| Aircraft | A359/H-SDE2E3GHIJ3J4J5LM1ORWXY/LB1D1 |
Departure
| Time | 2026-05-06 19:58 |
|---|---|
| Airport | Dubai International Airport (OMDB) |
Arrival
| Time | N/A |
|---|---|
| Airport | İstanbul Airport (LTFM) |
| Time | Latitude | Longitude | Altitude | Speed | Heading |
|---|---|---|---|---|---|
| 2026-05-06 19:43 | 25.24745 | 55.36827 | 16 ft | 0 kts | 301° |
| 2026-05-06 19:47 | 25.24752 | 55.36813 | 17 ft | 0 kts | 300° |
| 2026-05-06 19:47 | 25.24753 | 55.36812 | 17 ft | 2 kts | 300° |
| 2026-05-06 19:47 | 25.24767 | 55.36776 | 18 ft | 16 kts | 289° |
| 2026-05-06 19:48 | 25.24857 | 55.36538 | 16 ft | 19 kts | 302° |
| 2026-05-06 19:48 | 25.24926 | 55.36411 | 15 ft | 20 kts | 301° |
| 2026-05-06 19:48 | 25.25001 | 55.36273 | 16 ft | 22 kts | 301° |
| 2026-05-06 19:48 | 25.25084 | 55.36125 | 17 ft | 23 kts | 301° |
| 2026-05-06 19:49 | 25.25172 | 55.35967 | 15 ft | 25 kts | 301° |
| 2026-05-06 19:49 | 25.25265 | 55.35801 | 16 ft | 26 kts | 301° |
| 2026-05-06 19:49 | 25.25346 | 55.35652 | 17 ft | 22 kts | 302° |
| 2026-05-06 19:49 | 25.25432 | 55.35500 | 17 ft | 24 kts | 301° |
| 2026-05-06 19:50 | 25.25520 | 55.35341 | 17 ft | 25 kts | 301° |
| 2026-05-06 19:50 | 25.25614 | 55.35172 | 16 ft | 18 kts | 303° |
| 2026-05-06 19:50 | 25.25622 | 55.35164 | 17 ft | 4 kts | 320° |
| 2026-05-06 19:50 | 25.25728 | 55.35188 | 17 ft | 30 kts | 32° |
| 2026-05-06 19:51 | 25.25905 | 55.35308 | 16 ft | 24 kts | 32° |
| 2026-05-06 19:51 | 25.25981 | 55.35399 | 16 ft | 16 kts | 66° |
| 2026-05-06 19:51 | 25.25984 | 55.35524 | 18 ft | 17 kts | 111° |
| 2026-05-06 19:51 | 25.25926 | 55.35645 | 17 ft | 18 kts | 121° |
| 2026-05-06 19:52 | 25.25857 | 55.35769 | 18 ft | 20 kts | 121° |
| 2026-05-06 19:52 | 25.25781 | 55.35906 | 16 ft | 22 kts | 121° |
| 2026-05-06 19:52 | 25.25701 | 55.36051 | 15 ft | 23 kts | 121° |
| 2026-05-06 19:52 | 25.25616 | 55.36205 | 15 ft | 24 kts | 121° |
| 2026-05-06 19:53 | 25.25525 | 55.36366 | 18 ft | 25 kts | 122° |
| 2026-05-06 19:53 | 25.25432 | 55.36534 | 17 ft | 26 kts | 121° |
| 2026-05-06 19:53 | 25.25334 | 55.36710 | 17 ft | 27 kts | 122° |
| 2026-05-06 19:53 | 25.25234 | 55.36893 | 17 ft | 28 kts | 120° |
| 2026-05-06 19:54 | 25.25132 | 55.37080 | 17 ft | 29 kts | 121° |
| 2026-05-06 19:54 | 25.25027 | 55.37268 | 16 ft | 30 kts | 122° |
| 2026-05-06 19:54 | 25.24915 | 55.37468 | 18 ft | 30 kts | 121° |
| 2026-05-06 19:54 | 25.24804 | 55.37670 | 18 ft | 31 kts | 121° |
| 2026-05-06 19:55 | 25.24717 | 55.37831 | 20 ft | 14 kts | 109° |
| 2026-05-06 19:55 | 25.24738 | 55.37882 | 21 ft | 7 kts | 33° |
| 2026-05-06 19:55 | 25.24743 | 55.37885 | 20 ft | 0 kts | 30° |
| 2026-05-06 19:57 | 25.24752 | 55.37891 | 19 ft | 5 kts | 30° |
| 2026-05-06 19:57 | 25.24810 | 55.37927 | 20 ft | 13 kts | 21° |
| 2026-05-06 19:57 | 25.24895 | 55.37867 | 20 ft | 19 kts | 301° |
| 2026-05-06 19:58 | 25.25050 | 55.37587 | 17 ft | 78 kts | 301° |
| 2026-05-06 19:58 | 25.25456 | 55.36858 | 16 ft | 143 kts | 301° |
| 2026-05-06 19:58 | 25.26067 | 55.35750 | 150 ft | 184 kts | 301° |
| 2026-05-06 19:58 | 25.26719 | 55.34601 | 950 ft | 176 kts | 299° |
| 2026-05-06 19:59 | 25.27404 | 55.33405 | 1377 ft | 200 kts | 295° |
| 2026-05-06 19:59 | 25.28152 | 55.31959 | 1586 ft | 236 kts | 295° |
| 2026-05-06 19:59 | 25.28945 | 55.30313 | 2380 ft | 235 kts | 292° |
| 2026-05-06 19:59 | 25.29702 | 55.28783 | 3509 ft | 232 kts | 299° |
| 2026-05-06 20:00 | 25.30604 | 55.27227 | 4101 ft | 248 kts | 305° |
| 2026-05-06 20:00 | 25.31693 | 55.25679 | 4729 ft | 263 kts | 307° |
| 2026-05-06 20:00 | 25.32846 | 55.24043 | 5356 ft | 276 kts | 305° |
| 2026-05-06 20:00 | 25.34004 | 55.22335 | 5969 ft | 288 kts | 304° |
| 2026-05-06 20:01 | 25.35183 | 55.20495 | 6574 ft | 298 kts | 300° |
| 2026-05-06 20:01 | 25.35843 | 55.18321 | 7196 ft | 304 kts | 273° |
| 2026-05-06 20:01 | 25.35837 | 55.15974 | 7798 ft | 301 kts | 266° |
| 2026-05-06 20:01 | 25.35721 | 55.13693 | 8425 ft | 294 kts | 266° |
| 2026-05-06 20:02 | 25.35609 | 55.11432 | 9044 ft | 296 kts | 267° |
| 2026-05-06 20:02 | 25.35509 | 55.09146 | 9691 ft | 300 kts | 268° |
| 2026-05-06 20:02 | 25.35415 | 55.06821 | 10283 ft | 306 kts | 269° |
| 2026-05-06 20:02 | 25.35324 | 55.04445 | 10899 ft | 313 kts | 269° |
| 2026-05-06 20:03 | 25.35234 | 55.02007 | 11517 ft | 321 kts | 269° |
| 2026-05-06 20:03 | 25.35141 | 54.99508 | 12150 ft | 329 kts | 270° |
| 2026-05-06 20:03 | 25.35047 | 54.96937 | 12799 ft | 337 kts | 270° |
| 2026-05-06 20:03 | 25.34951 | 54.94321 | 13457 ft | 344 kts | 270° |
| 2026-05-06 20:04 | 25.34914 | 54.91691 | 14048 ft | 349 kts | 275° |
| 2026-05-06 20:04 | 25.35336 | 54.89015 | 14671 ft | 350 kts | 288° |
| 2026-05-06 20:04 | 25.36041 | 54.86460 | 15273 ft | 354 kts | 290° |
| 2026-05-06 20:04 | 25.36802 | 54.83849 | 15900 ft | 359 kts | 289° |
| 2026-05-06 20:05 | 25.37569 | 54.81209 | 16539 ft | 363 kts | 288° |
| 2026-05-06 20:05 | 25.38340 | 54.78535 | 17189 ft | 367 kts | 288° |
| 2026-05-06 20:05 | 25.39116 | 54.75829 | 17853 ft | 370 kts | 288° |
| 2026-05-06 20:05 | 25.39897 | 54.73101 | 18470 ft | 373 kts | 287° |
| 2026-05-06 20:06 | 25.40682 | 54.70361 | 19060 ft | 376 kts | 287° |
| 2026-05-06 20:06 | 25.41477 | 54.67578 | 19667 ft | 379 kts | 287° |
| 2026-05-06 20:06 | 25.42269 | 54.64791 | 20285 ft | 381 kts | 287° |
| 2026-05-06 20:06 | 25.43066 | 54.61986 | 20913 ft | 383 kts | 287° |
| 2026-05-06 20:07 | 25.43866 | 54.59208 | 21554 ft | 384 kts | 287° |
| 2026-05-06 20:07 | 25.44694 | 54.56391 | 22206 ft | 386 kts | 287° |
| 2026-05-06 20:07 | 25.45531 | 54.53563 | 22875 ft | 387 kts | 287° |
| 2026-05-06 20:07 | 25.46374 | 54.50724 | 23523 ft | 388 kts | 287° |
| 2026-05-06 20:08 | 25.47219 | 54.47879 | 24099 ft | 389 kts | 287° |
| 2026-05-06 20:08 | 25.48063 | 54.45027 | 24679 ft | 390 kts | 287° |
| 2026-05-06 20:08 | 25.48895 | 54.42170 | 25269 ft | 390 kts | 286° |
| 2026-05-06 20:08 | 25.49720 | 54.39310 | 25883 ft | 390 kts | 285° |
| 2026-05-06 20:09 | 25.50540 | 54.36461 | 26509 ft | 389 kts | 285° |
| 2026-05-06 20:09 | 25.51363 | 54.33608 | 27143 ft | 387 kts | 285° |
| 2026-05-06 20:09 | 25.52184 | 54.30770 | 27787 ft | 385 kts | 285° |
| 2026-05-06 20:09 | 25.53001 | 54.27953 | 28445 ft | 383 kts | 285° |
| 2026-05-06 20:10 | 25.53804 | 54.25187 | 29130 ft | 380 kts | 284° |
| 2026-05-06 20:10 | 25.54611 | 54.22410 | 29818 ft | 376 kts | 284° |
| 2026-05-06 20:10 | 25.55406 | 54.19669 | 30412 ft | 372 kts | 284° |
| 2026-05-06 20:10 | 25.56107 | 54.17255 | 30938 ft | 367 kts | 284° |
| 2026-05-06 20:14 | 25.56319 | 54.16524 | 31106 ft | 365 kts | 284° |
| 2026-05-06 20:14 | 25.57078 | 54.13903 | 31712 ft | 359 kts | 284° |
| 2026-05-06 20:14 | 25.57843 | 54.11264 | 32343 ft | 351 kts | 284° |
| 2026-05-06 20:15 | 25.58580 | 54.08717 | 32980 ft | 343 kts | 284° |
| 2026-05-06 20:15 | 25.59296 | 54.06241 | 33627 ft | 333 kts | 284° |
| 2026-05-06 20:15 | 25.59991 | 54.03840 | 34205 ft | 322 kts | 284° |
| 2026-05-06 20:15 | 25.60660 | 54.01524 | 34578 ft | 318 kts | 283° |
| 2026-05-06 20:16 | 25.61328 | 53.99202 | 34853 ft | 315 kts | 283° |
| 2026-05-06 20:16 | 25.61991 | 53.96889 | 35077 ft | 314 kts | 283° |
| 2026-05-06 20:16 | 25.62651 | 53.94586 | 35280 ft | 314 kts | 283° |
| 2026-05-06 20:16 | 25.63309 | 53.92291 | 35488 ft | 313 kts | 283° |
| 2026-05-06 20:17 | 25.63969 | 53.89987 | 35632 ft | 313 kts | 283° |
| 2026-05-06 20:17 | 25.64630 | 53.87680 | 35785 ft | 314 kts | 283° |
| 2026-05-06 20:17 | 25.65291 | 53.85372 | 35914 ft | 314 kts | 283° |
| 2026-05-06 20:17 | 25.65954 | 53.83059 | 36047 ft | 315 kts | 283° |
| 2026-05-06 20:18 | 25.66618 | 53.80737 | 36173 ft | 316 kts | 283° |
| 2026-05-06 20:18 | 25.67277 | 53.78437 | 36300 ft | 317 kts | 283° |
| 2026-05-06 20:18 | 25.67952 | 53.76077 | 36429 ft | 318 kts | 283° |
| 2026-05-06 20:18 | 25.68612 | 53.73770 | 36558 ft | 319 kts | 283° |
| 2026-05-06 20:19 | 25.69282 | 53.71427 | 36668 ft | 319 kts | 283° |
| 2026-05-06 20:19 | 25.69955 | 53.69071 | 36790 ft | 320 kts | 283° |
| 2026-05-06 20:19 | 25.71313 | 53.64296 | 38311 ft | 331 kts | 287° |
| 2026-05-06 20:20 | 25.72015 | 53.61828 | 38052 ft | 338 kts | 287° |
| 2026-05-06 20:20 | 25.72728 | 53.59331 | 36480 ft | 339 kts | 284° |
| 2026-05-06 20:20 | 25.73440 | 53.56846 | 36715 ft | 338 kts | 284° |
| 2026-05-06 20:20 | 25.74172 | 53.54351 | 36791 ft | 343 kts | 286° |
| 2026-05-06 20:21 | 25.75963 | 53.49380 | 36802 ft | 355 kts | 288° |
| 2026-05-06 20:21 | 25.77946 | 53.44264 | 36792 ft | 368 kts | 289° |
| 2026-05-06 20:22 | 25.80025 | 53.38960 | 36799 ft | 380 kts | 289° |
| 2026-05-06 20:22 | 25.82155 | 53.33489 | 36808 ft | 392 kts | 289° |
| 2026-05-06 20:23 | 25.83970 | 53.28802 | 36801 ft | 403 kts | 289° |
| 2026-05-06 20:23 | 25.86215 | 53.22991 | 36802 ft | 416 kts | 289° |
| 2026-05-06 20:24 | 25.88531 | 53.16985 | 36802 ft | 429 kts | 289° |
| 2026-05-06 20:24 | 25.90910 | 53.10810 | 36802 ft | 441 kts | 289° |
| 2026-05-06 20:25 | 25.93349 | 53.04472 | 36802 ft | 451 kts | 289° |
| 2026-05-06 20:25 | 25.95812 | 52.98067 | 36800 ft | 453 kts | 289° |
| 2026-05-06 20:26 | 25.98285 | 52.91630 | 36799 ft | 453 kts | 289° |
| 2026-05-06 20:26 | 26.00756 | 52.85179 | 36808 ft | 453 kts | 289° |
| 2026-05-06 20:27 | 26.03222 | 52.78727 | 36800 ft | 453 kts | 289° |
| 2026-05-06 20:27 | 26.05683 | 52.72278 | 36602 ft | 452 kts | 289° |
| 2026-05-06 20:28 | 26.06909 | 52.69062 | 36350 ft | 452 kts | 289° |
| 2026-05-06 20:28 | 26.08136 | 52.65841 | 36115 ft | 453 kts | 289° |
| 2026-05-06 20:28 | 26.09365 | 52.62609 | 35893 ft | 453 kts | 289° |
| 2026-05-06 20:28 | 26.10579 | 52.59411 | 37290 ft | 456 kts | 292° |
| 2026-05-06 20:29 | 26.11824 | 52.56139 | 35643 ft | 462 kts | 289° |
| 2026-05-06 20:29 | 26.13073 | 52.52847 | 35873 ft | 460 kts | 289° |
| 2026-05-06 20:29 | 26.14316 | 52.49574 | 36168 ft | 456 kts | 289° |
| 2026-05-06 20:29 | 26.15549 | 52.46325 | 36453 ft | 455 kts | 289° |
| 2026-05-06 20:30 | 26.16778 | 52.43085 | 36749 ft | 453 kts | 288° |
| 2026-05-06 20:30 | 26.17569 | 52.40996 | 36962 ft | 451 kts | 288° |
| 2026-05-06 20:30 | 26.18722 | 52.37950 | 37251 ft | 449 kts | 288° |
| 2026-05-06 20:31 | 26.19926 | 52.34748 | 37551 ft | 447 kts | 288° |
| 2026-05-06 20:31 | 26.21121 | 52.31562 | 37788 ft | 446 kts | 288° |
| 2026-05-06 20:31 | 26.22302 | 52.28404 | 37827 ft | 449 kts | 288° |
| 2026-05-06 20:32 | 26.24713 | 52.21979 | 37826 ft | 449 kts | 288° |
| 2026-05-06 20:32 | 26.27131 | 52.15550 | 37823 ft | 449 kts | 288° |
| 2026-05-06 20:33 | 26.29549 | 52.09118 | 37830 ft | 449 kts | 288° |
| 2026-05-06 20:33 | 26.31959 | 52.02696 | 37825 ft | 448 kts | 287° |
| 2026-05-06 20:34 | 26.34360 | 51.96287 | 37830 ft | 447 kts | 287° |
| 2026-05-06 20:34 | 26.36739 | 51.89922 | 37829 ft | 447 kts | 287° |
| 2026-05-06 20:35 | 26.39128 | 51.83521 | 37831 ft | 447 kts | 287° |
| 2026-05-06 20:35 | 26.41528 | 51.77113 | 37829 ft | 447 kts | 288° |
| 2026-05-06 20:36 | 26.43928 | 51.70704 | 37848 ft | 447 kts | 287° |
| 2026-05-06 20:36 | 26.46305 | 51.64323 | 37829 ft | 444 kts | 287° |
| 2026-05-06 20:37 | 26.48651 | 51.58000 | 37830 ft | 443 kts | 287° |
| 2026-05-06 20:37 | 26.51004 | 51.51639 | 37830 ft | 444 kts | 287° |
| 2026-05-06 20:38 | 26.53358 | 51.45268 | 37832 ft | 444 kts | 287° |
| 2026-05-06 20:38 | 26.55709 | 51.38899 | 37830 ft | 444 kts | 287° |
| 2026-05-06 20:39 | 26.58059 | 51.32525 | 37832 ft | 442 kts | 287° |
| 2026-05-06 20:39 | 26.60367 | 51.26151 | 37834 ft | 441 kts | 285° |
| 2026-05-06 20:40 | 26.62464 | 51.19763 | 37836 ft | 440 kts | 284° |
| 2026-05-06 20:40 | 26.64538 | 51.13329 | 37833 ft | 440 kts | 284° |
| 2026-05-06 20:41 | 26.66637 | 51.06899 | 37835 ft | 440 kts | 284° |
| 2026-05-06 20:41 | 26.68751 | 51.00476 | 37855 ft | 440 kts | 284° |
| 2026-05-06 20:42 | 26.70833 | 50.94052 | 37844 ft | 439 kts | 284° |
| 2026-05-06 20:42 | 26.72878 | 50.87618 | 37840 ft | 438 kts | 284° |
| 2026-05-06 20:43 | 26.74922 | 50.81189 | 37844 ft | 439 kts | 284° |
| 2026-05-06 20:43 | 26.76974 | 50.74745 | 37845 ft | 439 kts | 284° |
| 2026-05-06 20:44 | 26.79073 | 50.68319 | 37847 ft | 442 kts | 287° |
| 2026-05-06 20:44 | 26.82184 | 50.62337 | 37856 ft | 454 kts | 299° |
| 2026-05-06 20:45 | 26.86107 | 50.56749 | 37852 ft | 458 kts | 301° |
| 2026-05-06 20:45 | 26.90166 | 50.51235 | 37854 ft | 458 kts | 302° |
| 2026-05-06 20:46 | 26.94312 | 50.45780 | 37856 ft | 462 kts | 304° |
| 2026-05-06 20:46 | 26.98772 | 50.40569 | 37856 ft | 464 kts | 306° |
| 2026-05-06 20:47 | 27.03272 | 50.35374 | 37857 ft | 464 kts | 306° |
| 2026-05-06 20:47 | 27.07700 | 50.30157 | 37858 ft | 464 kts | 305° |
| 2026-05-06 20:48 | 27.12149 | 50.24964 | 37595 ft | 456 kts | 312° |
| 2026-05-06 20:48 | 27.14852 | 50.23102 | 37139 ft | 459 kts | 327° |
| 2026-05-06 20:48 | 27.17944 | 50.22051 | 36090 ft | 472 kts | 340° |
| 2026-05-06 20:48 | 27.21158 | 50.21268 | 34758 ft | 473 kts | 335° |
| 2026-05-06 20:49 | 27.24244 | 50.20051 | 33390 ft | 467 kts | 327° |
| 2026-05-06 20:49 | 27.27098 | 50.18350 | 31900 ft | 462 kts | 319° |
| 2026-05-06 20:49 | 27.29744 | 50.16300 | 30378 ft | 463 kts | 317° |
| 2026-05-06 20:49 | 27.32334 | 50.14094 | 28608 ft | 468 kts | 316° |
| 2026-05-06 20:50 | 27.34767 | 50.11664 | 26763 ft | 469 kts | 310° |
| 2026-05-06 20:50 | 27.36885 | 50.08873 | 24993 ft | 470 kts | 302° |
| 2026-05-06 20:50 | 27.38574 | 50.05734 | 23479 ft | 467 kts | 294° |
| 2026-05-06 20:50 | 27.39755 | 50.02369 | 21888 ft | 459 kts | 284° |
| 2026-05-06 20:51 | 27.40404 | 49.98891 | 20497 ft | 449 kts | 275° |
| 2026-05-06 20:51 | 27.40597 | 49.95424 | 19165 ft | 439 kts | 268° |
| 2026-05-06 20:51 | 27.40387 | 49.92074 | 17823 ft | 431 kts | 259° |
| 2026-05-06 20:51 | 27.39611 | 49.88860 | 16373 ft | 421 kts | 246° |
| 2026-05-06 20:52 | 27.38233 | 49.86004 | 14982 ft | 411 kts | 232° |
| 2026-05-06 20:52 | 27.36325 | 49.83668 | 13740 ft | 401 kts | 218° |
| 2026-05-06 20:52 | 27.34034 | 49.82007 | 13103 ft | 385 kts | 205° |
| 2026-05-06 20:52 | 27.31570 | 49.80992 | 12890 ft | 368 kts | 193° |
| 2026-05-06 20:53 | 27.29077 | 49.80582 | 12864 ft | 359 kts | 182° |
| 2026-05-06 20:53 | 27.26573 | 49.80735 | 12866 ft | 362 kts | 172° |
| 2026-05-06 20:53 | 27.24168 | 49.81448 | 12866 ft | 364 kts | 160° |
| 2026-05-06 20:53 | 27.21888 | 49.82701 | 12862 ft | 365 kts | 151° |
| 2026-05-06 20:54 | 27.19808 | 49.84350 | 12863 ft | 366 kts | 140° |
| 2026-05-06 20:54 | 27.18105 | 49.86480 | 12857 ft | 369 kts | 128° |
| 2026-05-06 20:54 | 27.16651 | 49.88859 | 12858 ft | 370 kts | 125° |
| 2026-05-06 20:54 | 27.15263 | 49.91281 | 12859 ft | 370 kts | 125° |
| 2026-05-06 20:55 | 27.13887 | 49.93730 | 12858 ft | 369 kts | 124° |
| 2026-05-06 20:55 | 27.12524 | 49.96171 | 12859 ft | 369 kts | 124° |
| 2026-05-06 20:55 | 27.11159 | 49.98622 | 12861 ft | 370 kts | 124° |
| 2026-05-06 20:55 | 27.09796 | 50.01074 | 12862 ft | 370 kts | 124° |
| 2026-05-06 20:56 | 27.08438 | 50.03519 | 12862 ft | 369 kts | 124° |
| 2026-05-06 20:56 | 27.07064 | 50.05960 | 12851 ft | 368 kts | 126° |
| 2026-05-06 20:56 | 27.05500 | 50.08220 | 12859 ft | 366 kts | 133° |
| 2026-05-06 20:56 | 27.03683 | 50.10180 | 12696 ft | 358 kts | 143° |
| 2026-05-06 20:57 | 27.01572 | 50.11579 | 12225 ft | 348 kts | 160° |
| 2026-05-06 20:57 | 26.99272 | 50.12202 | 11928 ft | 336 kts | 175° |
| 2026-05-06 20:57 | 26.96947 | 50.12120 | 11854 ft | 341 kts | 185° |
| 2026-05-06 20:57 | 26.94550 | 50.11625 | 11857 ft | 360 kts | 197° |
| 2026-05-06 20:58 | 26.92247 | 50.10389 | 11859 ft | 377 kts | 214° |
| 2026-05-06 20:58 | 26.90399 | 50.08282 | 11777 ft | 383 kts | 234° |
| 2026-05-06 20:58 | 26.89071 | 50.05698 | 11555 ft | 382 kts | 241° |
| 2026-05-06 20:58 | 26.87863 | 50.03045 | 11307 ft | 382 kts | 242° |
| 2026-05-06 20:59 | 26.86658 | 50.00398 | 11057 ft | 382 kts | 242° |
| 2026-05-06 20:59 | 26.85443 | 49.97762 | 10832 ft | 380 kts | 242° |
| 2026-05-06 20:59 | 26.84242 | 49.95174 | 10590 ft | 377 kts | 240° |
| 2026-05-06 20:59 | 26.83031 | 49.92586 | 10351 ft | 374 kts | 241° |
| 2026-05-06 21:00 | 26.81843 | 49.90052 | 10149 ft | 359 kts | 241° |
| 2026-05-06 21:00 | 26.80720 | 49.87659 | 9914 ft | 332 kts | 241° |
| 2026-05-06 21:00 | 26.79690 | 49.85463 | 9669 ft | 305 kts | 240° |
| 2026-05-06 21:00 | 26.78740 | 49.83444 | 9400 ft | 282 kts | 240° |
| 2026-05-06 21:01 | 26.77860 | 49.81580 | 9141 ft | 262 kts | 240° |
| 2026-05-06 21:01 | 26.77034 | 49.79833 | 8887 ft | 246 kts | 241° |
| 2026-05-06 21:01 | 26.76261 | 49.78199 | 8633 ft | 230 kts | 242° |
| 2026-05-06 21:01 | 26.75518 | 49.76628 | 8381 ft | 228 kts | 242° |
| 2026-05-06 21:02 | 26.74774 | 49.75058 | 8151 ft | 229 kts | 242° |
| 2026-05-06 21:02 | 26.74030 | 49.73482 | 7824 ft | 229 kts | 242° |
| 2026-05-06 21:02 | 26.73287 | 49.71912 | 7432 ft | 223 kts | 243° |
| 2026-05-06 21:02 | 26.72573 | 49.70405 | 7093 ft | 216 kts | 243° |
| 2026-05-06 21:03 | 26.71875 | 49.68937 | 6726 ft | 211 kts | 245° |
| 2026-05-06 21:03 | 26.71201 | 49.67515 | 6317 ft | 211 kts | 245° |
| 2026-05-06 21:03 | 26.70503 | 49.66038 | 5814 ft | 213 kts | 247° |
| 2026-05-06 21:03 | 26.69808 | 49.64565 | 5305 ft | 216 kts | 247° |
| 2026-05-06 21:04 | 26.69039 | 49.63131 | 4857 ft | 218 kts | 241° |
| 2026-05-06 21:04 | 26.68149 | 49.61751 | 4402 ft | 219 kts | 236° |
| 2026-05-06 21:04 | 26.67176 | 49.60448 | 4023 ft | 217 kts | 232° |
| 2026-05-06 21:04 | 26.66121 | 49.59215 | 3978 ft | 220 kts | 229° |
| 2026-05-06 21:05 | 26.64994 | 49.58055 | 3977 ft | 221 kts | 225° |
| 2026-05-06 21:05 | 26.63793 | 49.56972 | 3979 ft | 222 kts | 221° |
| 2026-05-06 21:05 | 26.62525 | 49.55977 | 3979 ft | 223 kts | 217° |
| 2026-05-06 21:05 | 26.61192 | 49.55074 | 3984 ft | 224 kts | 213° |
| 2026-05-06 21:06 | 26.59802 | 49.54269 | 3983 ft | 225 kts | 208° |
| 2026-05-06 21:06 | 26.58363 | 49.53569 | 3983 ft | 226 kts | 205° |
| 2026-05-06 21:06 | 26.56880 | 49.52978 | 3985 ft | 227 kts | 201° |
| 2026-05-06 21:06 | 26.55358 | 49.52497 | 3983 ft | 227 kts | 197° |
| 2026-05-06 21:07 | 26.53812 | 49.52130 | 3993 ft | 227 kts | 191° |
| 2026-05-06 21:07 | 26.52247 | 49.51885 | 3988 ft | 227 kts | 187° |
| 2026-05-06 21:07 | 26.50663 | 49.51757 | 3997 ft | 229 kts | 183° |
| 2026-05-06 21:07 | 26.49065 | 49.51750 | 3997 ft | 230 kts | 179° |
| 2026-05-06 21:08 | 26.47472 | 49.51865 | 3997 ft | 230 kts | 174° |
| 2026-05-06 21:08 | 26.45884 | 49.52102 | 3999 ft | 230 kts | 170° |
| 2026-05-06 21:08 | 26.44321 | 49.52458 | 3997 ft | 229 kts | 166° |
| 2026-05-06 21:08 | 26.43301 | 49.52758 | 3992 ft | 229 kts | 163° |
| 2026-05-06 21:09 | 26.41787 | 49.53307 | 3992 ft | 230 kts | 159° |
| 2026-05-06 21:09 | 26.39829 | 49.54215 | 3994 ft | 230 kts | 153° |
| 2026-05-06 21:09 | 26.38496 | 49.55180 | 3991 ft | 227 kts | 133° |
| 2026-05-06 21:09 | 26.37855 | 49.56108 | 3989 ft | 221 kts | 111° |
| 2026-05-06 21:10 | 26.37470 | 49.57717 | 3998 ft | 212 kts | 91° |
| 2026-05-06 21:10 | 26.37322 | 49.59346 | 3996 ft | 212 kts | 88° |
| 2026-05-06 21:10 | 26.37213 | 49.60984 | 3995 ft | 211 kts | 88° |
| 2026-05-06 21:10 | 26.37112 | 49.62618 | 3987 ft | 211 kts | 88° |
| 2026-05-06 21:11 | 26.37014 | 49.64235 | 3989 ft | 211 kts | 88° |
| 2026-05-06 21:11 | 26.36916 | 49.65870 | 3991 ft | 211 kts | 88° |
| 2026-05-06 21:11 | 26.36818 | 49.67502 | 3988 ft | 211 kts | 87° |
| 2026-05-06 21:11 | 26.36721 | 49.69135 | 3955 ft | 211 kts | 88° |
| 2026-05-06 21:12 | 26.36624 | 49.70770 | 3881 ft | 211 kts | 88° |
| 2026-05-06 21:12 | 26.36526 | 49.72411 | 3660 ft | 212 kts | 87° |
| 2026-05-06 21:12 | 26.36428 | 49.74052 | 3358 ft | 212 kts | 88° |
| 2026-05-06 21:12 | 26.36331 | 49.75679 | 3085 ft | 210 kts | 87° |
| 2026-05-06 21:13 | 26.36023 | 49.77281 | 2617 ft | 218 kts | 112° |
| 2026-05-06 21:13 | 26.34987 | 49.78537 | 2128 ft | 225 kts | 148° |
| 2026-05-06 21:13 | 26.33561 | 49.79280 | 1981 ft | 228 kts | 152° |
| 2026-05-06 21:13 | 26.32402 | 49.80414 | 2106 ft | 218 kts | 120° |
| 2026-05-06 21:14 | 26.31979 | 49.81979 | 2128 ft | 215 kts | 94° |
| 2026-05-06 21:14 | 26.32314 | 49.83530 | 2132 ft | 199 kts | 52° |
| 2026-05-06 21:14 | 26.33176 | 49.84678 | 2155 ft | 193 kts | 41° |
| 2026-05-06 21:14 | 26.34173 | 49.85515 | 2146 ft | 168 kts | 4° |
| 2026-05-06 21:15 | 26.35169 | 49.85305 | 2148 ft | 139 kts | 315° |
| 2026-05-06 21:15 | 26.36001 | 49.84749 | 2050 ft | 140 kts | 321° |
| 2026-05-06 21:15 | 26.36874 | 49.84261 | 1849 ft | 139 kts | 324° |
| 2026-05-06 21:15 | 26.37757 | 49.83862 | 1651 ft | 136 kts | 328° |
| 2026-05-06 21:16 | 26.38655 | 49.83539 | 1457 ft | 134 kts | 331° |
| 2026-05-06 21:16 | 26.39537 | 49.83258 | 1254 ft | 129 kts | 327° |
| 2026-05-06 21:16 | 26.40394 | 49.82975 | 1101 ft | 130 kts | 329° |
| 2026-05-06 21:16 | 26.41252 | 49.82686 | 948 ft | 129 kts | 330° |
| 2026-05-06 21:17 | 26.42122 | 49.82451 | 767 ft | 131 kts | 336° |
| 2026-05-06 21:17 | 26.42985 | 49.82196 | 630 ft | 128 kts | 332° |
| 2026-05-06 21:17 | 26.43847 | 49.81910 | 405 ft | 131 kts | 335° |
| 2026-05-06 21:17 | 26.44726 | 49.81646 | 247 ft | 130 kts | 336° |
| 2026-05-06 21:18 | 26.45605 | 49.81380 | 111 ft | 130 kts | 334° |
| 2026-05-06 21:18 | 26.46389 | 49.81129 | 89 ft | 105 kts | 346° |
| 2026-05-06 21:18 | 26.46988 | 49.80949 | 87 ft | 64 kts | 345° |
| 2026-05-06 21:18 | 26.47172 | 49.80892 | 87 ft | 0 kts | 345° |
| 2026-05-06 21:19 | 26.47173 | 49.80892 | 82 ft | 0 kts | 345° |
| 2026-05-06 21:19 | 26.40791 | 49.82839 | 1021 ft | 128 kts | 328° |
| 2026-05-06 21:19 | 26.41398 | 49.82640 | 931 ft | 129 kts | 335° |
| 2026-05-06 21:19 | 26.42324 | 49.82404 | 729 ft | 130 kts | 334° |
| 2026-05-06 21:20 | 26.43189 | 49.82119 | 568 ft | 128 kts | 332° |
| 2026-05-06 21:20 | 26.44015 | 49.81863 | 383 ft | 131 kts | 334° |
| 2026-05-06 21:20 | 26.44832 | 49.81612 | 231 ft | 130 kts | 335° |
| 2026-05-06 21:20 | 26.45719 | 49.81344 | 102 ft | 128 kts | 335° |
| 2026-05-06 21:21 | 26.46522 | 49.81091 | 90 ft | 99 kts | 345° |
| 2026-05-06 21:21 | 26.47096 | 49.80915 | 85 ft | 40 kts | 345° |